createdAt,value
2022-10-18T00:04:08.597Z,1.30
2022-10-18T00:09:28.652Z,1.60
2022-10-18T00:14:48.856Z,1.60
2022-10-18T00:20:08.964Z,1.30
2022-10-18T00:25:28.942Z,1.20
2022-10-18T00:36:10.406Z,1.53
2022-10-18T00:41:30.950Z,1.40
2022-10-18T00:46:51.952Z,1.40
2022-10-18T00:52:12.014Z,1.20
2022-10-18T00:57:32.193Z,1.50
2022-10-18T01:02:52.352Z,1.40
2022-10-18T01:08:12.526Z,1.20
2022-10-18T01:13:32.566Z,1.10
2022-10-18T01:18:52.739Z,1.30
2022-10-18T01:24:12.739Z,1.20
2022-10-18T01:29:32.920Z,1.27
2022-10-18T01:34:53.017Z,1.30
2022-10-18T01:40:12.975Z,1.20
2022-10-18T01:45:33.150Z,1.40
2022-10-18T01:50:53.363Z,1.07
2022-10-18T01:56:13.405Z,1.50
2022-10-18T02:01:33.553Z,1.70
2022-10-18T02:06:53.594Z,1.47
2022-10-18T02:12:13.783Z,1.30
2022-10-18T02:17:33.963Z,1.60
2022-10-18T02:22:53.964Z,1.30
2022-10-18T02:28:14.056Z,1.53
2022-10-18T02:33:34.183Z,1.30
2022-10-18T02:38:54.438Z,1.27
2022-10-18T02:44:14.709Z,1.20
2022-10-18T02:49:34.791Z,1.40
2022-10-18T02:54:55.086Z,1.47
2022-10-18T03:00:15.325Z,1.00
2022-10-18T03:05:35.589Z,1.23
2022-10-18T03:10:55.667Z,1.10
2022-10-18T03:16:16.041Z,1.50
2022-10-18T03:21:35.956Z,1.30
2022-10-18T03:26:56.231Z,1.20
2022-10-18T03:32:16.331Z,1.37
2022-10-18T03:37:36.618Z,1.40
2022-10-18T03:42:56.848Z,1.30
2022-10-18T03:48:16.921Z,1.37
2022-10-18T03:53:37.084Z,1.07
2022-10-18T03:58:57.230Z,1.30
2022-10-18T04:04:17.291Z,1.33
2022-10-18T04:09:37.485Z,1.20
2022-10-18T04:14:57.574Z,1.30
2022-10-18T04:20:17.796Z,1.10
2022-10-18T04:25:37.973Z,1.23
2022-10-18T04:30:58.182Z,1.27
2022-10-18T04:36:18.339Z,1.20
2022-10-18T04:41:38.528Z,1.30
2022-10-18T04:46:58.633Z,1.20
2022-10-18T04:52:18.669Z,1.33
2022-10-18T04:57:38.690Z,1.73
2022-10-18T05:02:58.774Z,1.33
2022-10-18T05:08:19.046Z,1.20
2022-10-18T05:13:39.153Z,1.20
2022-10-18T05:18:59.271Z,1.20
2022-10-18T05:24:21.050Z,1.20
2022-10-18T05:29:43.054Z,1.30
2022-10-18T05:35:03.243Z,1.00
2022-10-18T05:40:23.367Z,1.47
2022-10-18T05:45:43.503Z,1.50
2022-10-18T05:51:03.648Z,1.57
2022-10-18T05:56:23.989Z,1.37
2022-10-18T06:01:44.184Z,1.00
2022-10-18T06:07:04.496Z,1.40
2022-10-18T06:12:24.603Z,1.23
2022-10-18T06:17:44.606Z,1.50
2022-10-18T06:23:04.649Z,1.13
2022-10-18T06:28:24.880Z,1.23
2022-10-18T06:33:44.981Z,1.07
2022-10-18T06:39:05.211Z,1.17
2022-10-18T06:44:25.530Z,1.10
2022-10-18T06:49:45.880Z,1.53
2022-10-18T06:55:09.060Z,1.10
2022-10-18T07:00:29.375Z,1.37
2022-10-18T07:05:49.440Z,1.20
2022-10-18T07:11:09.696Z,1.20
2022-10-18T07:16:29.718Z,1.23
2022-10-18T07:21:49.893Z,1.23
2022-10-18T07:27:09.970Z,1.20
2022-10-18T07:32:30.175Z,1.60
2022-10-18T07:37:50.434Z,1.20
2022-10-18T07:43:12.265Z,1.70
2022-10-18T07:48:32.492Z,1.43
2022-10-18T07:53:52.673Z,1.37
2022-10-18T07:59:12.835Z,1.40
2022-10-18T08:04:32.997Z,1.40
2022-10-18T08:09:53.123Z,1.43
2022-10-18T08:15:13.338Z,1.40
2022-10-18T08:20:33.406Z,1.40
2022-10-18T08:25:53.575Z,1.63
2022-10-18T08:31:13.715Z,1.60
2022-10-18T08:36:33.866Z,1.63
2022-10-18T08:41:53.892Z,1.60
2022-10-18T08:47:14.103Z,1.50
2022-10-18T08:52:34.215Z,1.40
2022-10-18T08:57:54.358Z,1.60
2022-10-18T09:03:14.569Z,1.90
2022-10-18T09:08:34.736Z,1.70
2022-10-18T09:13:54.897Z,1.67
2022-10-18T09:19:15.081Z,1.60
2022-10-18T09:24:35.250Z,2.00
2022-10-18T09:29:55.443Z,1.60
2022-10-18T09:35:15.559Z,1.87
2022-10-18T09:40:35.791Z,1.97
2022-10-18T09:45:55.989Z,2.23
2022-10-18T09:51:16.192Z,3.10
2022-10-18T09:56:39.389Z,13.67
2022-10-18T10:02:02.126Z,23.87
2022-10-18T10:07:22.247Z,25.20
2022-10-18T10:12:42.304Z,27.83
2022-10-18T10:18:02.423Z,30.57
2022-10-18T10:23:22.604Z,26.90
2022-10-18T10:28:42.597Z,21.43
2022-10-18T10:34:02.686Z,17.60
2022-10-18T10:39:22.769Z,14.87
2022-10-18T10:44:42.883Z,12.73
2022-10-18T10:50:03.058Z,12.40
2022-10-18T10:55:35.016Z,12.67
2022-10-18T11:00:55.915Z,10.53
2022-10-18T11:06:16.032Z,10.57
2022-10-18T11:11:36.291Z,8.40
2022-10-18T11:16:56.450Z,9.00
2022-10-18T11:22:16.722Z,9.10
2022-10-18T11:27:37.007Z,10.10
2022-10-18T11:32:57.097Z,9.37
2022-10-18T11:38:17.248Z,9.50
2022-10-18T11:44:00.497Z,8.67
2022-10-18T11:49:17.130Z,9.43
2022-10-18T11:54:37.216Z,9.10
2022-10-18T11:59:57.178Z,8.60
2022-10-18T12:05:24.959Z,8.70
2022-10-18T12:11:03.872Z,8.27
2022-10-18T12:16:45.523Z,9.17
2022-10-18T12:22:04.792Z,11.00
2022-10-18T12:27:24.797Z,9.70
2022-10-18T12:33:02.039Z,9.53
2022-10-18T12:38:24.650Z,10.50
2022-10-18T12:43:44.648Z,11.70
2022-10-18T12:49:04.767Z,11.33
2022-10-18T12:54:24.874Z,12.17
2022-10-18T12:59:44.931Z,12.80
2022-10-18T13:05:12.267Z,9.83
2022-10-18T13:10:42.365Z,9.40
2022-10-18T13:16:02.432Z,9.37
2022-10-18T13:21:22.445Z,9.23
2022-10-18T13:26:42.522Z,9.67
2022-10-18T13:32:02.651Z,8.63
2022-10-18T13:37:22.811Z,7.17
2022-10-18T13:42:42.952Z,8.47
2022-10-18T13:48:03.179Z,7.90
2022-10-18T13:53:24.336Z,8.27
2022-10-18T13:58:53.857Z,7.67
2022-10-18T14:04:24.563Z,7.23
2022-10-18T14:09:45.577Z,6.73
2022-10-18T14:15:06.463Z,7.37
2022-10-18T14:20:29.295Z,7.60
2022-10-18T14:25:49.731Z,7.77
2022-10-18T14:31:09.917Z,7.30
2022-10-18T14:36:30.195Z,7.80
2022-10-18T14:41:50.219Z,6.47
2022-10-18T14:47:10.312Z,7.27
2022-10-18T14:52:35.083Z,6.50
2022-10-18T14:57:55.588Z,6.93
2022-10-18T15:03:15.764Z,7.07
2022-10-18T15:08:35.931Z,6.73
2022-10-18T15:13:56.038Z,6.70
2022-10-18T15:19:16.107Z,6.40
2022-10-18T15:24:36.346Z,7.10
2022-10-18T15:29:56.555Z,6.00
2022-10-18T15:35:16.776Z,6.47
2022-10-18T15:40:36.846Z,5.90
2022-10-18T15:46:00.052Z,6.40
2022-10-18T15:51:23.215Z,6.13
2022-10-18T15:56:43.421Z,5.97
2022-10-18T16:02:03.598Z,5.57
2022-10-18T16:07:23.742Z,6.47
2022-10-18T16:12:43.941Z,5.70
2022-10-18T16:18:04.009Z,5.20
2022-10-18T16:23:24.148Z,5.20
2022-10-18T16:28:44.332Z,6.00
2022-10-18T16:34:04.263Z,5.93
2022-10-18T16:39:24.422Z,5.83
2022-10-18T16:44:44.673Z,5.80
2022-10-18T16:50:06.622Z,5.30
2022-10-18T16:55:26.943Z,6.40
2022-10-18T17:00:47.150Z,4.70
2022-10-18T17:06:07.267Z,5.33
2022-10-18T17:11:27.470Z,5.03
2022-10-18T17:16:50.837Z,5.17
2022-10-18T17:22:14.618Z,4.97
2022-10-18T17:27:34.977Z,5.23
2022-10-18T17:32:55.552Z,5.50
2022-10-18T17:38:15.602Z,4.90
2022-10-18T17:43:35.686Z,4.87
2022-10-18T17:48:55.729Z,4.77
2022-10-18T17:54:15.771Z,4.60
2022-10-18T17:59:35.942Z,4.23
2022-10-18T18:04:55.980Z,4.83
2022-10-18T18:10:16.185Z,5.57
2022-10-18T18:15:36.162Z,4.90
2022-10-18T18:20:56.249Z,4.70
2022-10-18T18:26:16.317Z,5.73
2022-10-18T18:31:40.023Z,4.70
2022-10-18T18:37:02.607Z,5.80
2022-10-18T18:42:22.740Z,4.47
2022-10-18T18:47:42.914Z,4.40
2022-10-18T18:53:03.078Z,4.57
2022-10-18T18:58:23.168Z,4.47
2022-10-18T19:03:43.392Z,5.33
2022-10-18T19:09:03.647Z,5.33
2022-10-18T19:14:24.320Z,5.10
2022-10-18T19:19:45.644Z,4.63
2022-10-18T19:25:05.668Z,4.40
2022-10-18T19:30:25.842Z,4.37
2022-10-18T19:35:45.902Z,4.80
2022-10-18T19:41:06.113Z,4.70
2022-10-18T19:46:26.286Z,4.50
2022-10-18T19:51:46.698Z,4.57
2022-10-18T19:57:06.912Z,5.00
2022-10-18T20:02:27.260Z,4.80
2022-10-18T20:07:47.260Z,3.97
2022-10-18T20:13:07.627Z,4.43
2022-10-18T20:18:27.708Z,4.50
2022-10-18T20:23:47.916Z,4.43
2022-10-18T20:29:08.079Z,4.83
2022-10-18T20:34:28.348Z,4.30
2022-10-18T20:39:48.353Z,4.47
2022-10-18T20:45:08.647Z,4.47
2022-10-18T20:50:28.616Z,4.57
2022-10-18T20:55:48.782Z,4.40
2022-10-18T21:01:09.031Z,4.67
2022-10-18T21:06:29.206Z,4.60
2022-10-18T21:11:49.461Z,4.67
2022-10-18T21:17:09.570Z,4.30
2022-10-18T21:22:29.916Z,3.93
2022-10-18T21:27:49.992Z,4.37
2022-10-18T21:33:10.233Z,3.40
2022-10-18T21:38:30.417Z,3.60
2022-10-18T21:43:50.491Z,4.20
2022-10-18T21:49:10.630Z,4.80
2022-10-18T21:54:30.776Z,4.07
2022-10-18T21:59:50.868Z,4.93
2022-10-18T22:05:12.222Z,4.33
2022-10-18T22:10:32.131Z,3.73
2022-10-18T22:15:52.360Z,4.20
2022-10-18T22:21:12.487Z,4.43
2022-10-18T22:26:32.664Z,4.57
2022-10-18T22:31:52.766Z,3.43
2022-10-18T22:37:12.880Z,4.20
2022-10-18T22:47:57.713Z,4.17
2022-10-18T22:53:17.979Z,3.87
2022-10-18T22:58:38.131Z,3.77
2022-10-18T23:03:58.335Z,4.13
2022-10-18T23:09:18.516Z,4.13
2022-10-18T23:14:38.724Z,3.50
2022-10-18T23:19:58.908Z,3.80
2022-10-18T23:25:19.120Z,3.70
2022-10-18T23:30:39.262Z,3.63
2022-10-18T23:35:59.388Z,4.00
2022-10-18T23:41:19.482Z,3.80
2022-10-18T23:46:39.861Z,4.37
2022-10-18T23:51:59.865Z,3.33
2022-10-18T23:57:19.892Z,3.97
